Cherrygrove, North Carolina
Current Conditions -  °F | °C
As of 11:15 AM on Wednesday 28 Jan 2015 (Local Time) from KSIF Reporting Station
Clear Clear  
Wind Chill: 38°   Ceiling: Unl
Heat Index: 38°   Visibility: 10mi
Dew Point: 16°   Wind: 3mph
Humidity: 42%   Direction: 330°NNW
Pressure: 30.27"   Gusts: NA
Location:  36.3355°N, 79.6561°W
Report Text: KSIF 281615Z AUTO 33003KT 10SM CLR 03/M09 A3027 RMK AO2 T00321087
Loading
Personal Weather Stations






























Interactive Weather Map New forecast layout! Learn more

10-Day Weather Forecast

Advertisements
Track Severe Weather on mobile